Time;durP1;ratioP1;P1;durP2;ratioP2;P2;SDS_P1;SDS_P2;PMS_P1;PMS_P2;Temp;Humidity;BMP_temperature;BMP_pressure;BME280_temperature;BME280_humidity;BME280_pressure;Samples;Min_cycle;Max_cycle;Signal;HPM_P1;HPM_P2
2023/12/02 00:01:38;;;;;;;40.95;27.38;;;0.40;99.90;;;;;;5113972;27;20029;-80
2023/12/02 00:04:04;;;;;;;39.60;26.20;;;0.40;99.90;;;;;;5131689;27;20094;-80
2023/12/02 00:06:30;;;;;;;35.35;24.02;;;0.40;99.90;;;;;;5132812;27;20118;-79
2023/12/02 00:08:56;;;;;;;33.28;22.08;;;0.50;99.90;;;;;;5112828;27;20070;-77
2023/12/02 00:11:21;;;;;;;41.53;25.27;;;0.50;99.90;;;;;;5131948;27;20039;-78
2023/12/02 00:13:47;;;;;;;43.90;27.25;;;0.60;99.90;;;;;;5131933;27;20023;-80
2023/12/02 00:16:13;;;;;;;40.30;27.10;;;0.50;99.90;;;;;;5131958;27;20041;-79
2023/12/02 00:18:39;;;;;;;38.58;24.85;;;0.50;99.90;;;;;;5131615;27;20045;-79
2023/12/02 00:21:05;;;;;;;44.03;28.38;;;0.60;99.90;;;;;;5131851;27;20051;-80
2023/12/02 00:23:31;;;;;;;40.08;25.20;;;0.60;99.90;;;;;;5097028;27;20030;-80
2023/12/02 00:25:58;;;;;;;36.65;22.42;;;0.70;99.90;;;;;;5113467;27;20372;-79
2023/12/02 00:28:24;;;;;;;47.58;29.30;;;0.70;99.90;;;;;;5131823;27;20027;-79
2023/12/02 00:30:50;;;;;;;58.33;37.15;;;0.60;99.90;;;;;;5131614;27;20380;-79
2023/12/02 00:33:16;;;;;;;48.53;33.13;;;0.70;99.90;;;;;;5130978;27;20024;-79
2023/12/02 00:35:42;;;;;;;41.20;27.83;;;0.60;99.90;;;;;;5131687;27;20404;-79
2023/12/02 00:38:08;;;;;;;40.10;26.25;;;0.70;99.90;;;;;;5130527;27;20050;-79
2023/12/02 00:40:33;;;;;;;32.15;23.60;;;0.70;99.90;;;;;;5131662;27;20023;-78
2023/12/02 00:42:59;;;;;;;29.13;20.02;;;0.80;99.90;;;;;;5112587;27;20045;-79
2023/12/02 00:45:25;;;;;;;29.02;20.65;;;0.80;99.90;;;;;;5112947;27;20023;-79
2023/12/02 00:47:50;;;;;;;29.27;18.98;;;0.70;99.90;;;;;;5131289;27;20134;-80
2023/12/02 00:50:16;;;;;;;24.65;18.65;;;0.80;99.90;;;;;;5131184;27;20023;-79
2023/12/02 00:52:42;;;;;;;24.95;18.33;;;0.80;99.90;;;;;;5131446;27;20038;-79
2023/12/02 00:55:08;;;;;;;25.73;17.52;;;0.70;99.90;;;;;;5130422;27;20047;-79
2023/12/02 00:57:34;;;;;;;30.85;18.17;;;0.80;99.90;;;;;;5130952;27;20092;-79
2023/12/02 01:00:00;;;;;;;27.05;18.00;;;0.70;99.90;;;;;;5131070;27;20027;-79
2023/12/02 01:02:27;;;;;;;25.40;17.13;;;0.70;99.90;;;;;;5130401;27;20051;-79
2023/12/02 01:04:52;;;;;;;24.27;16.48;;;0.70;99.90;;;;;;5130579;27;20462;-79
2023/12/02 01:07:18;;;;;;;22.67;15.15;;;0.70;99.90;;;;;;5131122;27;20152;-78
2023/12/02 01:09:44;;;;;;;21.58;15.27;;;0.60;99.90;;;;;;5131305;27;20027;-79
2023/12/02 01:12:09;;;;;;;28.52;17.05;;;0.70;99.90;;;;;;5130808;27;20019;-79
2023/12/02 01:14:35;;;;;;;28.38;18.70;;;0.60;99.90;;;;;;5131232;27;20093;-79
2023/12/02 01:17:01;;;;;;;29.40;18.23;;;0.60;99.90;;;;;;5130144;27;20031;-79
2023/12/02 01:19:27;;;;;;;28.75;18.48;;;0.50;99.90;;;;;;5131261;28;20027;-79
2023/12/02 01:21:52;;;;;;;26.65;18.38;;;0.60;99.90;;;;;;5112267;28;20107;-78
2023/12/02 01:24:18;;;;;;;29.92;18.10;;;0.60;99.90;;;;;;5113546;28;20049;-79
2023/12/02 01:26:44;;;;;;;30.63;18.20;;;0.50;99.90;;;;;;5113827;28;20038;-79
2023/12/02 01:29:09;;;;;;;24.95;18.48;;;0.50;99.90;;;;;;5131661;28;20564;-79
2023/12/02 01:31:35;;;;;;;29.50;18.38;;;0.40;99.90;;;;;;5132983;28;20023;-78
2023/12/02 01:34:01;;;;;;;25.17;18.20;;;0.50;99.90;;;;;;5131236;28;20061;-79
2023/12/02 01:36:27;;;;;;;28.13;18.20;;;0.40;99.90;;;;;;5113461;28;20034;-79
2023/12/02 01:38:52;;;;;;;26.85;18.35;;;0.30;99.90;;;;;;5135670;28;20114;-79
2023/12/02 01:41:18;;;;;;;24.98;17.65;;;0.30;99.90;;;;;;5131674;28;20029;-79
2023/12/02 01:43:44;;;;;;;27.50;17.63;;;0.30;99.90;;;;;;5131277;28;20027;-78
2023/12/02 01:46:13;;;;;;;30.13;18.60;;;0.30;99.90;;;;;;5130540;28;20117;-79
2023/12/02 01:48:38;;;;;;;27.58;19.08;;;0.40;99.90;;;;;;5112929;28;20110;-79
2023/12/02 01:51:04;;;;;;;23.65;16.95;;;0.30;99.90;;;;;;5130648;28;20434;-79
2023/12/02 01:53:30;;;;;;;22.83;16.83;;;0.40;99.90;;;;;;5112775;28;20117;-79
2023/12/02 01:55:56;;;;;;;27.38;17.73;;;0.40;99.90;;;;;;5130616;28;20126;-79
2023/12/02 01:58:22;;;;;;;30.90;20.23;;;0.40;99.90;;;;;;5112577;28;20039;-79
2023/12/02 02:00:48;;;;;;;29.52;19.75;;;0.40;99.90;;;;;;5131175;28;20489;-79
2023/12/02 02:03:13;;;;;;;37.63;19.13;;;0.50;99.90;;;;;;5130269;28;20034;-79
2023/12/02 02:05:39;;;;;;;22.08;14.70;;;0.40;99.90;;;;;;5131138;28;20110;-79
2023/12/02 02:08:05;;;;;;;31.20;16.40;;;0.40;99.90;;;;;;5130410;28;20027;-78
2023/12/02 02:10:31;;;;;;;39.80;18.73;;;0.50;99.90;;;;;;5131622;28;20035;-78
2023/12/02 02:12:56;;;;;;;24.60;15.57;;;0.50;99.90;;;;;;5112267;27;20076;-79
2023/12/02 02:15:22;;;;;;;31.42;18.52;;;0.40;99.90;;;;;;5134395;27;20060;-79
2023/12/02 02:17:48;;;;;;;22.88;14.05;;;0.50;99.90;;;;;;5134816;27;20035;-79
2023/12/02 02:20:14;;;;;;;25.05;16.88;;;0.50;99.90;;;;;;5134757;27;20065;-79
2023/12/02 02:22:40;;;;;;;26.20;16.75;;;0.50;99.90;;;;;;5134870;27;20051;-79
2023/12/02 02:25:06;;;;;;;29.77;16.98;;;0.50;99.90;;;;;;5115437;27;20061;-79
2023/12/02 02:27:34;;;;;;;28.52;16.50;;;0.30;99.90;;;;;;5134540;27;20066;-78
2023/12/02 02:30:00;;;;;;;27.42;15.63;;;0.30;99.90;;;;;;5133795;27;20486;-78
2023/12/02 02:32:26;;;;;;;21.25;14.25;;;0.40;99.90;;;;;;5134950;27;20031;-78
2023/12/02 02:34:52;;;;;;;22.30;14.35;;;0.30;99.90;;;;;;5115965;27;20444;-79
2023/12/02 02:37:18;;;;;;;28.90;14.93;;;0.20;99.90;;;;;;5133844;27;20073;-80
2023/12/02 02:39:44;;;;;;;23.40;14.32;;;0.30;99.90;;;;;;5134545;27;20030;-78
2023/12/02 02:42:11;;;;;;;21.02;12.60;;;0.20;99.90;;;;;;5133991;27;20031;-79
2023/12/02 02:44:36;;;;;;;24.38;13.30;;;0.30;99.90;;;;;;5115870;27;20031;-79
2023/12/02 02:47:03;;;;;;;23.77;14.00;;;0.10;99.90;;;;;;5133597;27;20060;-79
2023/12/02 02:49:29;;;;;;;19.02;11.88;;;0.20;99.90;;;;;;5115759;27;20465;-79
2023/12/02 02:51:54;;;;;;;21.75;12.52;;;0.10;99.90;;;;;;5115439;27;20110;-79
2023/12/02 02:54:20;;;;;;;18.02;12.05;;;0.20;99.90;;;;;;5133988;27;20051;-79
2023/12/02 02:56:46;;;;;;;17.30;10.93;;;0.10;99.90;;;;;;5134013;27;20027;-79
2023/12/02 02:59:12;;;;;;;17.50;11.70;;;0.20;99.90;;;;;;5114630;27;20038;-79
2023/12/02 03:01:42;;;;;;;16.90;10.77;;;0.20;99.90;;;;;;5134122;27;20030;-79
2023/12/02 03:04:08;;;;;;;14.25;9.85;;;0.10;99.90;;;;;;5133615;27;20023;-78
2023/12/02 03:06:34;;;;;;;12.95;8.75;;;0.20;99.90;;;;;;5115312;27;20383;-78
2023/12/02 03:09:00;;;;;;;13.15;9.20;;;0.10;99.90;;;;;;5133606;27;20031;-79
2023/12/02 03:11:26;;;;;;;10.50;8.00;;;0.20;99.90;;;;;;5133671;27;20038;-79
2023/12/02 03:13:52;;;;;;;11.73;7.63;;;0.10;99.90;;;;;;5133808;27;20019;-79
2023/12/02 03:16:17;;;;;;;12.40;7.32;;;0.10;99.90;;;;;;5133076;27;20405;-79
2023/12/02 03:18:43;;;;;;;11.25;7.05;;;0.10;99.90;;;;;;5133333;27;20059;-79
2023/12/02 03:21:09;;;;;;;10.30;6.20;;;0.10;99.90;;;;;;5132671;27;20030;-78
2023/12/02 03:23:35;;;;;;;11.10;7.10;;;0.00;99.90;;;;;;5133623;27;20473;-79
2023/12/02 03:26:00;;;;;;;10.77;7.40;;;0.00;99.90;;;;;;5131933;27;20027;-80
2023/12/02 03:28:27;;;;;;;11.60;7.82;;;-0.10;99.90;;;;;;5098133;27;20030;-78
2023/12/02 03:30:53;;;;;;;10.88;7.80;;;-0.20;99.90;;;;;;5133866;27;20027;-79
2023/12/02 03:33:19;;;;;;;11.73;8.70;;;-0.20;99.90;;;;;;5132753;27;20455;-79
2023/12/02 03:35:44;;;;;;;15.93;7.45;;;-0.20;99.90;;;;;;5133147;27;20023;-79
2023/12/02 03:38:10;;;;;;;10.93;6.97;;;-0.30;99.90;;;;;;5132689;27;20483;-79
2023/12/02 03:40:36;;;;;;;10.15;7.15;;;-0.30;99.90;;;;;;5133307;27;20027;-79
2023/12/02 03:43:02;;;;;;;10.52;7.38;;;-0.30;99.90;;;;;;5132545;27;20027;-80
2023/12/02 03:45:28;;;;;;;11.93;8.02;;;-0.30;99.90;;;;;;5114423;27;20080;-79
2023/12/02 03:47:54;;;;;;;13.82;8.18;;;-0.30;99.90;;;;;;5116754;27;20027;-80
2023/12/02 03:50:19;;;;;;;14.70;9.02;;;-0.40;99.90;;;;;;5135478;27;20448;-79
2023/12/02 03:52:45;;;;;;;11.93;8.23;;;-0.30;99.90;;;;;;5117901;27;20019;-79
2023/12/02 03:55:11;;;;;;;12.85;7.97;;;-0.40;99.90;;;;;;5117349;27;20410;-79
2023/12/02 03:57:37;;;;;;;15.00;9.98;;;-0.40;99.90;;;;;;5117567;27;20484;-80
2023/12/02 04:00:10;;;;;;;13.60;9.65;;;-0.40;99.90;;;;;;5137939;27;20027;-79
2023/12/02 04:02:38;;;;;;;14.10;9.73;;;-0.40;99.90;;;;;;5136821;27;20464;-79
2023/12/02 04:05:08;;;;;;;14.48;10.15;;;-0.50;99.90;;;;;;5116401;27;20094;-79
2023/12/02 04:07:34;;;;;;;16.20;9.77;;;-0.50;99.90;;;;;;5114168;27;20079;-79
2023/12/02 04:10:00;;;;;;;16.23;9.98;;;-0.50;99.90;;;;;;5114584;27;20030;-80
2023/12/02 04:12:26;;;;;;;14.73;10.50;;;-0.60;99.90;;;;;;5132208;27;20099;-79
2023/12/02 04:14:51;;;;;;;18.88;11.32;;;-0.50;99.90;;;;;;5113990;27;20028;-79
2023/12/02 04:17:17;;;;;;;12.85;9.70;;;-0.50;99.90;;;;;;5131587;27;20445;-79
2023/12/02 04:19:43;;;;;;;16.98;11.50;;;-0.50;99.90;;;;;;5113488;27;20023;-79
2023/12/02 04:22:09;;;;;;;17.98;10.93;;;-0.50;99.90;;;;;;5131561;27;20023;-80
2023/12/02 04:24:35;;;;;;;20.02;11.80;;;-0.60;99.90;;;;;;5113793;27;20034;-80
2023/12/02 04:27:00;;;;;;;16.67;10.98;;;-0.60;99.90;;;;;;5132172;27;20034;-79
2023/12/02 04:29:26;;;;;;;20.02;11.27;;;-0.60;99.90;;;;;;5132190;27;20035;-79
2023/12/02 04:31:52;;;;;;;16.80;11.02;;;-0.50;99.90;;;;;;5132496;27;20019;-79
2023/12/02 04:34:17;;;;;;;15.48;10.75;;;-0.60;99.90;;;;;;5131872;27;20061;-79
2023/12/02 04:36:43;;;;;;;16.85;11.63;;;-0.60;99.90;;;;;;5132312;27;20179;-79
2023/12/02 04:39:11;;;;;;;17.48;10.60;;;-0.60;99.90;;;;;;5131280;27;20035;-80
2023/12/02 04:41:38;;;;;;;14.35;9.85;;;-0.60;99.90;;;;;;5132164;27;20051;-79
2023/12/02 04:44:05;;;;;;;13.57;9.48;;;-0.60;99.90;;;;;;5131375;27;20020;-80
2023/12/02 04:46:31;;;;;;;14.20;8.93;;;-0.60;99.90;;;;;;5113465;27;20027;-79
2023/12/02 04:48:57;;;;;;;14.75;9.88;;;-0.60;99.90;;;;;;5113438;27;20454;-80
2023/12/02 04:51:23;;;;;;;18.38;11.15;;;-0.60;99.90;;;;;;5131386;27;20068;-80
2023/12/02 04:53:49;;;;;;;20.75;13.43;;;-0.70;99.90;;;;;;5131646;27;20019;-80
2023/12/02 04:56:14;;;;;;;16.05;10.90;;;-0.80;99.90;;;;;;5131507;27;20094;-80
2023/12/02 04:58:40;;;;;;;17.70;11.32;;;-0.80;99.90;;;;;;5131976;27;20035;-79
2023/12/02 05:01:06;;;;;;;20.80;11.95;;;-0.80;99.90;;;;;;5131252;27;20207;-80
2023/12/02 05:03:32;;;;;;;17.60;11.52;;;-0.70;99.90;;;;;;5132504;27;20116;-80
2023/12/02 05:05:58;;;;;;;16.92;11.70;;;-0.80;99.90;;;;;;5114089;27;20019;-79
2023/12/02 05:08:23;;;;;;;18.48;12.07;;;-0.80;99.90;;;;;;5131941;27;20106;-80
2023/12/02 05:10:50;;;;;;;15.45;10.68;;;-0.80;99.90;;;;;;5132354;27;20030;-80
2023/12/02 05:13:16;;;;;;;19.35;12.60;;;-0.80;99.90;;;;;;5112726;27;20444;-80
2023/12/02 05:15:43;;;;;;;21.95;12.80;;;-0.80;99.90;;;;;;5131860;27;20125;-80
2023/12/02 05:18:09;;;;;;;20.42;13.15;;;-0.80;99.90;;;;;;5112745;28;20109;-80
2023/12/02 05:20:34;;;;;;;23.05;12.68;;;-0.80;99.90;;;;;;5131603;27;20051;-80
2023/12/02 05:23:00;;;;;;;22.38;12.35;;;-0.80;99.90;;;;;;5131869;28;20368;-80
2023/12/02 05:25:26;;;;;;;21.48;12.25;;;-0.90;99.90;;;;;;5131709;28;20023;-80
2023/12/02 05:27:51;;;;;;;18.05;12.20;;;-0.90;99.90;;;;;;5131795;28;20027;-80
2023/12/02 05:30:18;;;;;;;21.25;13.05;;;-0.80;99.90;;;;;;5131022;28;20110;-80
2023/12/02 05:32:43;;;;;;;20.08;12.27;;;-1.00;99.90;;;;;;5131406;28;20448;-80
2023/12/02 05:35:10;;;;;;;22.17;12.07;;;-1.00;99.90;;;;;;5130825;28;20038;-80
2023/12/02 05:37:37;;;;;;;19.90;12.40;;;-1.00;99.90;;;;;;5131251;28;20450;-80
2023/12/02 05:40:04;;;;;;;17.83;11.05;;;-1.00;99.90;;;;;;5131306;28;20023;-80
2023/12/02 05:42:30;;;;;;;20.30;12.15;;;-1.00;99.90;;;;;;5131128;28;20222;-80
2023/12/02 05:44:56;;;;;;;19.35;11.82;;;-1.00;99.90;;;;;;5131550;28;20208;-80
2023/12/02 05:47:21;;;;;;;19.30;12.05;;;-1.00;99.90;;;;;;5131425;28;20137;-80
2023/12/02 05:49:47;;;;;;;17.30;10.10;;;-1.00;99.90;;;;;;5134345;27;20103;-80
2023/12/02 05:52:13;;;;;;;15.93;8.82;;;-1.00;99.90;;;;;;5116220;27;20026;-80
2023/12/02 05:54:39;;;;;;;13.85;8.65;;;-0.90;99.90;;;;;;5135410;27;20043;-80
2023/12/02 05:57:04;;;;;;;13.30;8.63;;;-0.90;99.90;;;;;;5116928;27;20421;-81
2023/12/02 05:59:30;;;;;;;12.27;8.65;;;-0.90;99.90;;;;;;5134792;27;20072;-80
2023/12/02 06:01:56;;;;;;;12.57;8.20;;;-0.90;99.90;;;;;;5135646;27;20050;-81
2023/12/02 06:04:21;;;;;;;17.73;9.90;;;-1.00;99.90;;;;;;5116240;27;20038;-81
2023/12/02 06:06:47;;;;;;;14.27;9.73;;;-1.00;99.90;;;;;;5116400;27;20052;-80
2023/12/02 06:09:13;;;;;;;18.83;9.05;;;-0.90;99.90;;;;;;5134892;27;20445;-81
2023/12/02 06:11:39;;;;;;;14.68;8.88;;;-1.00;99.90;;;;;;5135213;27;20127;-81
2023/12/02 06:14:05;;;;;;;16.75;7.70;;;-1.00;99.90;;;;;;5116454;27;20106;-80
2023/12/02 06:16:31;;;;;;;14.23;6.97;;;-1.00;99.90;;;;;;5115855;27;20035;-81
2023/12/02 06:18:57;;;;;;;11.77;7.70;;;-1.00;99.90;;;;;;5134649;27;20031;-81
2023/12/02 06:21:22;;;;;;;9.45;6.25;;;-0.90;99.90;;;;;;5134768;27;20023;-81
2023/12/02 06:23:48;;;;;;;10.05;7.18;;;-0.90;99.90;;;;;;5134889;27;20023;-81
2023/12/02 06:26:15;;;;;;;12.18;7.88;;;-0.90;99.90;;;;;;5134501;27;20379;-81
2023/12/02 06:28:41;;;;;;;16.90;10.60;;;-0.90;99.90;;;;;;5135576;27;20035;-80
2023/12/02 06:31:13;;;;;;;14.15;9.00;;;-0.90;99.90;;;;;;5135047;27;20376;-81
2023/12/02 06:33:39;;;;;;;16.52;9.77;;;-0.90;99.90;;;;;;5135143;27;20023;-81
2023/12/02 06:36:05;;;;;;;15.57;10.25;;;-1.00;99.90;;;;;;5134613;27;20031;-80
2023/12/02 06:38:30;;;;;;;16.33;10.25;;;-1.00;99.90;;;;;;5134004;27;20042;-81
2023/12/02 06:40:56;;;;;;;16.00;9.20;;;-1.00;99.90;;;;;;5134284;27;20019;-81
2023/12/02 06:43:22;;;;;;;14.68;9.13;;;-1.00;99.90;;;;;;5133807;27;20345;-81
2023/12/02 06:45:47;;;;;;;19.08;9.60;;;-1.00;99.90;;;;;;5134207;27;20027;-81
2023/12/02 06:48:13;;;;;;;14.05;9.40;;;-1.00;99.90;;;;;;5133412;27;20427;-80
2023/12/02 06:50:39;;;;;;;13.48;8.68;;;-1.00;99.90;;;;;;5134274;27;20076;-80
2023/12/02 06:53:06;;;;;;;15.40;9.30;;;-1.00;99.90;;;;;;5115152;27;20027;-80
2023/12/02 06:55:31;;;;;;;16.33;8.98;;;-1.00;99.90;;;;;;5134092;27;20043;-81
2023/12/02 06:57:58;;;;;;;15.05;9.05;;;-1.10;99.90;;;;;;5133853;27;20031;-81
2023/12/02 07:00:25;;;;;;;14.02;9.18;;;-1.10;99.90;;;;;;5113894;27;20031;-81
2023/12/02 07:02:51;;;;;;;13.35;8.90;;;-1.10;99.90;;;;;;5133912;27;20023;-80
2023/12/02 07:05:17;;;;;;;13.93;8.52;;;-1.10;99.90;;;;;;5097803;27;20053;-80
2023/12/02 07:07:42;;;;;;;14.00;8.57;;;-1.10;99.90;;;;;;5134086;27;20027;-80
2023/12/02 07:10:09;;;;;;;14.55;8.85;;;-1.10;99.90;;;;;;5133670;27;20027;-81
2023/12/02 07:12:36;;;;;;;14.88;9.57;;;-1.10;99.90;;;;;;5114917;27;20047;-81
2023/12/02 07:15:03;;;;;;;16.10;9.27;;;-1.10;99.90;;;;;;5115326;27;20047;-81
2023/12/02 07:17:29;;;;;;;15.65;8.82;;;-1.10;99.90;;;;;;5132728;27;20038;-80
2023/12/02 07:19:54;;;;;;;16.23;10.15;;;-1.10;99.90;;;;;;5114324;27;20035;-80
2023/12/02 07:22:20;;;;;;;14.55;9.30;;;-1.20;99.90;;;;;;5114014;27;20138;-80
2023/12/02 07:24:46;;;;;;;16.23;8.90;;;-1.20;99.90;;;;;;5133335;27;20023;-80
2023/12/02 07:27:12;;;;;;;13.57;8.13;;;-1.20;99.90;;;;;;5133431;27;20460;-80
2023/12/02 07:29:38;;;;;;;13.32;9.02;;;-1.10;99.90;;;;;;5133588;27;20027;-80
2023/12/02 07:32:05;;;;;;;13.55;7.93;;;-1.20;99.90;;;;;;5134390;27;20038;-80
2023/12/02 07:34:31;;;;;;;17.05;9.10;;;-1.10;99.90;;;;;;5133678;27;20084;-81
2023/12/02 07:36:57;;;;;;;14.73;8.35;;;-1.10;99.90;;;;;;5134191;27;20031;-80
2023/12/02 07:39:22;;;;;;;13.30;7.90;;;-1.10;99.90;;;;;;5114624;27;20042;-81
2023/12/02 07:41:49;;;;;;;11.50;7.75;;;-1.00;99.90;;;;;;5115558;27;20047;-80
2023/12/02 07:44:16;;;;;;;14.60;9.18;;;-1.10;99.90;;;;;;5114181;27;20057;-80
2023/12/02 07:46:41;;;;;;;17.00;10.43;;;-1.10;99.90;;;;;;5133037;27;20019;-80
2023/12/02 07:49:07;;;;;;;16.50;9.88;;;-1.10;99.90;;;;;;5133164;27;20027;-80
2023/12/02 07:51:33;;;;;;;16.35;10.30;;;-1.10;99.90;;;;;;5114195;27;20833;-80
2023/12/02 07:53:58;;;;;;;19.30;10.85;;;-1.30;99.90;;;;;;5132674;27;20070;-80
2023/12/02 07:56:24;;;;;;;18.65;11.50;;;-1.30;99.90;;;;;;5113912;27;20027;-80
2023/12/02 07:58:50;;;;;;;18.63;12.02;;;-1.30;99.90;;;;;;5133641;27;20035;-79
2023/12/02 08:01:16;;;;;;;22.05;11.18;;;-1.30;99.90;;;;;;5136927;27;20019;-81
2023/12/02 08:03:41;;;;;;;18.63;10.85;;;-1.30;99.90;;;;;;5135245;27;20019;-80
2023/12/02 08:06:07;;;;;;;16.55;9.38;;;-1.40;99.90;;;;;;5114593;27;20034;-79
2023/12/02 08:08:33;;;;;;;18.45;9.93;;;-1.40;99.90;;;;;;5136041;27;20035;-81
2023/12/02 08:10:59;;;;;;;16.15;10.02;;;-1.40;99.90;;;;;;5137723;27;20076;-80
2023/12/02 08:13:25;;;;;;;17.98;10.02;;;-1.40;99.90;;;;;;5136128;27;20485;-81
2023/12/02 08:15:50;;;;;;;16.95;9.73;;;-1.40;99.90;;;;;;5132789;27;20092;-80
2023/12/02 08:18:18;;;;;;;16.23;9.23;;;-1.50;99.90;;;;;;5132771;27;20106;-80
2023/12/02 08:20:45;;;;;;;17.35;10.00;;;-1.40;99.90;;;;;;5132624;27;20478;-80
2023/12/02 08:23:10;;;;;;;15.90;9.80;;;-1.40;99.90;;;;;;5114282;27;20027;-81
2023/12/02 08:25:36;;;;;;;15.85;9.75;;;-1.40;99.90;;;;;;5131832;27;20011;-81
2023/12/02 08:28:02;;;;;;;19.70;12.13;;;-1.40;99.90;;;;;;5132593;27;20353;-81
2023/12/02 08:30:27;;;;;;;20.27;12.00;;;-1.50;99.90;;;;;;5113581;27;20589;-81
2023/12/02 08:32:53;;;;;;;19.08;11.93;;;-1.40;99.90;;;;;;5132834;27;20340;-81
2023/12/02 08:35:19;;;;;;;21.55;12.55;;;-1.40;99.90;;;;;;5132225;27;20019;-81
2023/12/02 08:37:45;;;;;;;18.15;10.93;;;-1.40;99.90;;;;;;5114806;27;20452;-81
2023/12/02 08:40:11;;;;;;;18.45;11.70;;;-1.40;99.90;;;;;;5115079;27;20051;-81
2023/12/02 08:42:36;;;;;;;17.88;10.80;;;-1.30;99.90;;;;;;5132835;27;20774;-81
2023/12/02 08:45:02;;;;;;;18.08;12.13;;;-1.30;99.90;;;;;;5133313;27;20349;-81
2023/12/02 08:47:28;;;;;;;18.95;12.30;;;-1.30;99.90;;;;;;5131926;27;20030;-80
2023/12/02 08:49:54;;;;;;;20.23;12.38;;;-1.20;99.90;;;;;;5132741;27;20048;-80
2023/12/02 08:52:19;;;;;;;21.45;12.95;;;-1.20;99.90;;;;;;5131881;27;20033;-81
2023/12/02 08:54:45;;;;;;;19.67;12.73;;;-1.10;99.90;;;;;;5132316;27;20043;-81
2023/12/02 08:57:11;;;;;;;20.33;12.55;;;-1.00;99.90;;;;;;5132045;27;20091;-81
2023/12/02 08:59:37;;;;;;;20.67;12.88;;;-0.90;99.90;;;;;;5112849;27;20037;-81
2023/12/02 09:02:05;;;;;;;23.15;13.27;;;-0.90;99.90;;;;;;5132278;27;20037;-81
2023/12/02 09:04:32;;;;;;;20.40;13.73;;;-0.80;99.90;;;;;;5131529;27;20023;-82
2023/12/02 09:06:58;;;;;;;21.25;12.57;;;-0.80;99.90;;;;;;5096872;27;20352;-83
2023/12/02 09:09:24;;;;;;;18.58;12.98;;;-0.60;99.90;;;;;;5131392;27;20388;-82
2023/12/02 09:11:50;;;;;;;20.38;12.98;;;-0.70;99.90;;;;;;5131814;27;20090;-82
2023/12/02 09:14:16;;;;;;;21.65;12.68;;;-0.60;99.90;;;;;;5132290;27;20069;-82
2023/12/02 09:16:46;;;;;;;19.75;12.52;;;-0.60;99.90;;;;;;5131267;27;20027;-82
2023/12/02 09:19:54;;;;;;;19.77;12.70;;;-0.50;99.90;;;;;;5113382;28;20369;-82
2023/12/02 09:22:46;;;;;;;20.88;13.05;;;-0.60;99.90;;;;;;5131866;27;20082;-82
2023/12/02 09:25:35;;;;;;;18.63;12.23;;;-0.50;99.90;;;;;;5131964;28;20024;-83
2023/12/02 09:28:07;;;;;;;20.67;12.07;;;-0.50;99.90;;;;;;5113659;28;20045;-82
2023/12/02 09:30:37;;;;;;;23.00;12.40;;;-0.40;99.90;;;;;;5112771;28;20333;-82
2023/12/02 09:33:06;;;;;;;22.48;11.80;;;-0.40;99.90;;;;;;5113342;28;20031;-82
2023/12/02 09:35:33;;;;;;;18.05;11.48;;;-0.40;99.90;;;;;;5131547;28;20027;-82
2023/12/02 09:38:00;;;;;;;17.67;11.00;;;-0.40;99.90;;;;;;5113275;28;20031;-82
2023/12/02 09:40:29;;;;;;;14.68;10.55;;;-0.40;99.90;;;;;;5131709;28;20076;-82
2023/12/02 09:43:05;;;;;;;14.73;9.82;;;-0.30;99.90;;;;;;5132192;28;20027;-81
2023/12/02 09:45:42;;;;;;;15.02;9.45;;;-0.30;99.90;;;;;;5132547;28;20106;-81
2023/12/02 09:48:30;;;;;;;13.93;10.00;;;-0.20;99.90;;;;;;5114726;28;20357;-81
2023/12/02 09:51:06;;;;;;;15.25;9.32;;;-0.10;99.90;;;;;;5133085;28;20072;-82
2023/12/02 09:54:10;;;;;;;16.83;10.65;;;-0.20;99.90;;;;;;5113985;28;20054;-82
2023/12/02 09:56:44;;;;;;;16.35;10.40;;;0.00;99.90;;;;;;5075904;28;20054;-82
2023/12/02 09:59:25;;;;;;;16.75;10.10;;;0.00;99.90;;;;;;5114979;28;20076;-81
2023/12/02 10:02:33;;;;;;;19.55;11.07;;;0.00;99.90;;;;;;5132847;28;20023;-81
2023/12/02 10:05:09;;;;;;;14.00;9.15;;;0.10;99.90;;;;;;5114521;28;20550;-82
2023/12/02 10:08:03;;;;;;;11.63;7.95;;;0.20;99.90;;;;;;5114270;28;20026;-82
2023/12/02 10:10:44;;;;;;;14.02;9.15;;;0.20;99.90;;;;;;5114740;28;20076;-81
2023/12/02 10:13:24;;;;;;;17.00;10.02;;;0.20;99.90;;;;;;5133311;28;20123;-82
2023/12/02 10:15:57;;;;;;;13.05;8.65;;;0.30;99.90;;;;;;5133867;28;20023;-82
2023/12/02 10:18:29;;;;;;;11.50;8.23;;;0.40;99.90;;;;;;5114981;28;20039;-82
2023/12/02 10:21:00;;;;;;;13.07;11.00;;;0.50;99.90;;;;;;5133206;28;20015;-80
2023/12/02 10:23:41;;;;;;;12.75;10.52;;;0.50;99.90;;;;;;5133041;28;20353;-80
2023/12/02 10:26:22;;;;;;;18.58;13.60;;;0.60;99.90;;;;;;5132863;28;20046;-81
2023/12/02 10:28:59;;;;;;;24.92;16.15;;;0.70;99.90;;;;;;5131161;28;20478;-81
2023/12/02 10:31:28;;;;;;;22.85;14.30;;;0.70;99.90;;;;;;5131935;28;20463;-81
2023/12/02 10:34:16;;;;;;;17.23;12.23;;;0.80;99.90;;;;;;5113162;27;20456;-81
2023/12/02 10:36:48;;;;;;;18.70;12.23;;;0.90;99.90;;;;;;5134823;27;20086;-81
2023/12/02 10:39:24;;;;;;;13.85;8.07;;;1.00;99.90;;;;;;5134692;27;20043;-81
2023/12/02 10:42:00;;;;;;;14.57;9.60;;;1.00;99.90;;;;;;5134205;27;20061;-80
2023/12/02 10:44:31;;;;;;;37.85;21.63;;;1.10;99.90;;;;;;5134842;27;20087;-80
2023/12/02 10:46:58;;;;;;;29.63;17.83;;;1.20;99.90;;;;;;5134162;27;20023;-80
2023/12/02 10:49:24;;;;;;;27.08;17.30;;;1.30;99.90;;;;;;5134733;27;20031;-80
2023/12/02 10:51:52;;;;;;;25.75;16.27;;;1.30;99.90;;;;;;5133854;27;20099;-80
2023/12/02 10:54:20;;;;;;;32.00;19.77;;;1.40;99.90;;;;;;5115939;27;20059;-80
2023/12/02 10:56:48;;;;;;;29.10;20.02;;;1.60;99.90;;;;;;5133305;27;20137;-80
2023/12/02 10:59:16;;;;;;;33.55;18.55;;;1.50;99.90;;;;;;5133860;27;20485;-80
2023/12/02 11:02:00;;;;;;;22.45;15.43;;;1.70;99.90;;;;;;5133397;27;20476;-80
2023/12/02 11:04:33;;;;;;;21.92;14.23;;;1.90;99.90;;;;;;5134084;27;20392;-80
2023/12/02 11:07:03;;;;;;;25.27;17.08;;;2.10;99.90;;;;;;5134145;27;20343;-79
2023/12/02 11:09:35;;;;;;;30.88;18.13;;;2.10;99.90;;;;;;5133724;27;20050;-80
2023/12/02 11:12:19;;;;;;;16.20;10.80;;;2.20;99.90;;;;;;5134090;27;20106;-80
2023/12/02 11:14:48;;;;;;;14.10;8.43;;;2.20;99.90;;;;;;5133087;27;20054;-79
2023/12/02 11:17:58;;;;;;;14.57;9.30;;;2.40;99.90;;;;;;5133459;27;20027;-79
2023/12/02 11:20:44;;;;;;;9.70;7.15;;;2.50;99.90;;;;;;5124358;27;20182;-79
2023/12/02 11:23:36;;;;;;;7.95;5.95;;;2.60;99.90;;;;;;5115523;27;20264;-78
2023/12/02 11:26:11;;;;;;;7.35;5.25;;;2.70;99.90;;;;;;5133633;27;20380;-79
2023/12/02 11:28:42;;;;;;;10.00;4.30;;;2.80;99.90;;;;;;5134109;27;20064;-78
2023/12/02 11:31:22;;;;;;;7.35;4.05;;;2.80;99.90;;;;;;5135050;27;20479;-79
2023/12/02 11:33:59;;;;;;;5.22;3.58;;;2.90;99.90;;;;;;5133245;27;20043;-79
2023/12/02 11:36:44;;;;;;;5.68;3.45;;;2.90;99.90;;;;;;5133772;27;20468;-78
2023/12/02 11:39:15;;;;;;;5.82;3.70;;;3.00;99.90;;;;;;5134095;27;20425;-79
2023/12/02 11:42:10;;;;;;;4.00;3.22;;;3.00;99.90;;;;;;5132812;27;20034;-80
2023/12/02 11:44:55;;;;;;;5.53;3.17;;;3.00;99.90;;;;;;5132663;27;20028;-80
2023/12/02 11:47:49;;;;;;;6.38;3.45;;;3.00;99.90;;;;;;5132720;27;20027;-80
2023/12/02 11:50:20;;;;;;;3.45;2.78;;;3.10;99.90;;;;;;5114433;27;20035;-80
2023/12/02 11:53:01;;;;;;;4.22;2.65;;;3.20;99.90;;;;;;5133464;27;20046;-80
2023/12/02 11:55:43;;;;;;;3.58;2.80;;;3.30;99.90;;;;;;5116510;27;20047;-79
2023/12/02 11:58:26;;;;;;;6.00;3.22;;;3.20;99.90;;;;;;5133313;27;20114;-79
2023/12/02 12:00:51;;;;;;;;;;;3.40;99.90;;;;;;5134053;27;20027;-79
2023/12/02 12:03:39;;;;;;;7.18;3.22;;;3.50;99.90;;;;;;5134648;27;19936;-79
2023/12/02 12:06:12;;;;;;;5.90;3.38;;;3.60;99.90;;;;;;5133401;27;20142;-80
2023/12/02 12:09:01;;;;;;;4.60;3.17;;;3.60;99.90;;;;;;5114181;27;20079;-80
2023/12/02 12:11:28;;;;;;;8.02;3.88;;;3.60;99.90;;;;;;5133212;27;20065;-80
2023/12/02 12:13:55;;;;;;;8.27;3.90;;;3.70;99.90;;;;;;5132367;27;20525;-80
2023/12/02 12:16:20;;;;;;;7.13;4.43;;;3.70;99.90;;;;;;5114068;27;20110;-79
2023/12/02 12:18:46;;;;;;;4.30;3.63;;;3.90;99.90;;;;;;5131979;27;20114;-80
2023/12/02 12:21:12;;;;;;;5.95;3.45;;;3.90;99.90;;;;;;5132396;27;20023;-79
2023/12/02 12:23:38;;;;;;;4.97;3.75;;;3.90;99.90;;;;;;5132357;27;20025;-79
2023/12/02 12:26:05;;;;;;;6.25;4.53;;;3.90;99.90;;;;;;5132577;27;20031;-79
2023/12/02 12:28:32;;;;;;;9.60;5.45;;;3.90;99.90;;;;;;5132014;27;20038;-80
2023/12/02 12:30:58;;;;;;;8.95;5.22;;;4.00;99.90;;;;;;5132796;27;20023;-79
2023/12/02 12:33:24;;;;;;;6.78;4.50;;;4.00;99.90;;;;;;5132571;27;20043;-79
2023/12/02 12:35:50;;;;;;;9.07;4.70;;;4.00;99.90;;;;;;5131952;27;20031;-78
2023/12/02 12:38:16;;;;;;;5.93;4.20;;;3.90;99.90;;;;;;5132804;27;20033;-78
2023/12/02 12:40:44;;;;;;;6.22;3.90;;;4.00;99.90;;;;;;5131507;27;20054;-78
2023/12/02 12:43:13;;;;;;;7.45;4.13;;;4.00;99.90;;;;;;5132301;27;20023;-79
2023/12/02 12:45:39;;;;;;;7.07;4.05;;;3.90;99.90;;;;;;5131803;27;20417;-79